createdAt,value
2024-05-09T00:00:59.349Z,1.15
2024-05-09T00:01:59.425Z,1.12
2024-05-09T00:02:59.482Z,1.14
2024-05-09T00:03:59.528Z,1.13
2024-05-09T00:04:59.701Z,1.13
2024-05-09T00:05:59.717Z,1.16
2024-05-09T00:06:59.613Z,1.12
2024-05-09T00:07:59.725Z,1.13
2024-05-09T00:08:59.740Z,1.15
2024-05-09T00:09:59.831Z,1.14
2024-05-09T00:10:59.878Z,1.12
2024-05-09T00:12:00.146Z,1.16
2024-05-09T00:12:59.921Z,1.12
2024-05-09T00:14:00.039Z,1.15
2024-05-09T00:15:00.036Z,1.15
2024-05-09T00:16:00.060Z,1.12
2024-05-09T00:17:00.259Z,1.13
2024-05-09T00:18:00.584Z,1.14
2024-05-09T00:19:00.373Z,1.14
2024-05-09T00:20:00.372Z,1.16
2024-05-09T00:21:00.485Z,1.12
2024-05-09T00:22:00.384Z,1.16
2024-05-09T00:23:00.484Z,1.14
2024-05-09T00:24:00.493Z,1.15
2024-05-09T00:25:00.520Z,1.13
2024-05-09T00:26:00.678Z,1.16
2024-05-09T00:27:00.586Z,1.15
2024-05-09T00:28:00.743Z,1.17
2024-05-09T00:29:00.772Z,1.16
2024-05-09T00:30:00.699Z,1.15
2024-05-09T00:31:00.776Z,1.14
2024-05-09T00:32:00.885Z,1.15
2024-05-09T00:33:01.106Z,1.16
2024-05-09T00:34:01.095Z,1.14
2024-05-09T00:35:00.908Z,1.16
2024-05-09T00:36:00.943Z,1.14
2024-05-09T00:37:00.941Z,1.14
2024-05-09T00:38:01.447Z,1.17
2024-05-09T00:39:01.063Z,1.17
2024-05-09T00:40:01.144Z,1.19
2024-05-09T00:41:01.221Z,1.16
2024-05-09T00:42:01.183Z,1.18
2024-05-09T00:43:01.227Z,1.17
2024-05-09T00:44:01.305Z,1.16
2024-05-09T00:45:01.355Z,1.18
2024-05-09T00:46:01.351Z,1.18
2024-05-09T00:47:01.420Z,1.17
2024-05-09T00:48:01.753Z,1.15
2024-05-09T00:49:01.647Z,1.17
2024-05-09T00:50:01.669Z,1.19
2024-05-09T00:51:01.680Z,1.19
2024-05-09T00:52:01.671Z,1.18
2024-05-09T00:53:01.764Z,1.17
2024-05-09T00:54:01.780Z,1.19
2024-05-09T00:55:01.823Z,1.17
2024-05-09T00:56:01.942Z,1.17
2024-05-09T00:57:01.932Z,1.18
2024-05-09T00:58:01.967Z,1.19
2024-05-09T00:59:02.039Z,1.19
2024-05-09T01:00:02.018Z,1.20
2024-05-09T01:01:02.132Z,1.19
2024-05-09T01:02:02.189Z,1.18
2024-05-09T01:03:02.422Z,1.18
2024-05-09T01:04:02.284Z,1.19
2024-05-09T01:05:02.316Z,1.19
2024-05-09T01:06:02.328Z,1.18
2024-05-09T01:07:02.280Z,1.17
2024-05-09T01:08:02.512Z,1.18
2024-05-09T01:09:02.404Z,1.19
2024-05-09T01:10:02.495Z,1.20
2024-05-09T01:11:02.623Z,1.20
2024-05-09T01:12:02.687Z,1.18
2024-05-09T01:13:02.623Z,1.20
2024-05-09T01:14:02.615Z,1.20
2024-05-09T01:15:02.632Z,1.18
2024-05-09T01:16:02.690Z,1.19
2024-05-09T01:17:02.734Z,1.19
2024-05-09T01:18:02.839Z,1.19
2024-05-09T01:19:02.914Z,1.19
2024-05-09T01:20:05.738Z,1.17
2024-05-09T01:21:02.814Z,1.19
2024-05-09T01:22:02.832Z,1.19
2024-05-09T01:23:02.866Z,1.20
2024-05-09T01:24:02.782Z,1.20
2024-05-09T01:25:02.823Z,1.20
2024-05-09T01:26:02.894Z,1.21
2024-05-09T01:27:02.793Z,1.20
2024-05-09T01:28:02.790Z,1.19
2024-05-09T01:29:02.799Z,1.19
2024-05-09T01:30:04.090Z,1.19
2024-05-09T01:31:02.819Z,1.19
2024-05-09T01:32:02.920Z,1.20
2024-05-09T01:33:03.224Z,1.20
2024-05-09T01:34:02.951Z,1.20
2024-05-09T01:35:02.805Z,1.19
2024-05-09T01:36:02.885Z,1.22
2024-05-09T01:37:02.864Z,1.20
2024-05-09T01:38:02.881Z,1.20
2024-05-09T01:39:02.801Z,1.21
2024-05-09T01:40:03.547Z,1.19
2024-05-09T01:41:02.882Z,1.18
2024-05-09T01:42:02.840Z,1.21
2024-05-09T01:43:02.836Z,1.20
2024-05-09T01:44:02.889Z,1.21
2024-05-09T01:45:02.824Z,1.18
2024-05-09T01:46:02.834Z,1.19
2024-05-09T01:47:02.864Z,1.19
2024-05-09T01:48:03.468Z,1.22
2024-05-09T01:49:02.943Z,1.20
2024-05-09T01:50:03.540Z,1.20
2024-05-09T01:51:02.851Z,1.20
2024-05-09T01:52:02.836Z,1.19
2024-05-09T01:53:02.826Z,1.21
2024-05-09T01:54:02.851Z,1.19
2024-05-09T01:55:06.254Z,1.21
2024-05-09T01:56:02.885Z,1.21
2024-05-09T01:57:02.830Z,1.22
2024-05-09T01:58:02.834Z,1.22
2024-05-09T01:59:02.882Z,1.22
2024-05-09T02:00:03.675Z,1.23
2024-05-09T02:01:02.889Z,1.21
2024-05-09T02:02:03.119Z,1.21
2024-05-09T02:03:03.008Z,1.23
2024-05-09T02:04:03.253Z,1.22
2024-05-09T02:05:03.016Z,1.21
2024-05-09T02:06:03.097Z,1.22
2024-05-09T02:07:02.851Z,1.21
2024-05-09T02:08:02.904Z,1.22
2024-05-09T02:09:02.825Z,1.20
2024-05-09T02:10:06.453Z,1.20
2024-05-09T02:11:04.015Z,1.20
2024-05-09T02:12:02.960Z,1.21
2024-05-09T02:13:02.858Z,1.21
2024-05-09T02:14:02.911Z,1.22
2024-05-09T02:15:02.847Z,1.23
2024-05-09T02:16:02.857Z,1.22
2024-05-09T02:17:02.946Z,1.23
2024-05-09T02:18:02.957Z,1.24
2024-05-09T02:19:03.012Z,1.25
2024-05-09T02:20:02.963Z,1.22
2024-05-09T02:21:03.005Z,1.22
2024-05-09T02:22:02.899Z,1.23
2024-05-09T02:23:03.122Z,1.23
2024-05-09T02:24:02.948Z,1.22
2024-05-09T02:25:02.985Z,1.21
2024-05-09T02:26:03.010Z,1.23
2024-05-09T02:27:02.983Z,1.23
2024-05-09T02:28:03.109Z,1.22
2024-05-09T02:29:03.090Z,1.22
2024-05-09T02:30:04.685Z,1.24
2024-05-09T02:31:03.072Z,1.24
2024-05-09T02:32:03.199Z,1.24
2024-05-09T02:33:03.324Z,1.24
2024-05-09T02:34:03.519Z,1.24
2024-05-09T02:35:03.220Z,1.25
2024-05-09T02:36:03.126Z,1.24
2024-05-09T02:37:03.151Z,1.25
2024-05-09T02:38:03.291Z,1.23
2024-05-09T02:39:03.069Z,1.25
2024-05-09T02:40:03.487Z,1.23
2024-05-09T02:41:03.117Z,1.21
2024-05-09T02:42:03.097Z,1.23
2024-05-09T02:43:03.057Z,1.22
2024-05-09T02:44:03.127Z,1.23
2024-05-09T02:45:03.051Z,1.23
2024-05-09T02:46:03.090Z,1.22
2024-05-09T02:47:03.117Z,1.24
2024-05-09T02:48:03.473Z,1.24
2024-05-09T02:49:03.218Z,1.23
2024-05-09T02:50:04.630Z,1.22
2024-05-09T02:51:03.262Z,1.24
2024-05-09T02:52:03.085Z,1.24
2024-05-09T02:53:03.099Z,1.25
2024-05-09T02:54:03.072Z,1.23
2024-05-09T02:55:03.082Z,1.24
2024-05-09T02:56:03.158Z,1.24
2024-05-09T02:57:03.085Z,1.22
2024-05-09T02:58:03.117Z,1.23
2024-05-09T02:59:03.100Z,1.22
2024-05-09T03:00:03.679Z,1.23
2024-05-09T03:01:03.139Z,1.23
2024-05-09T03:02:03.184Z,1.23
2024-05-09T03:03:03.270Z,1.24
2024-05-09T03:04:03.237Z,1.23
2024-05-09T03:05:03.180Z,1.26
2024-05-09T03:06:03.134Z,1.25
2024-05-09T03:07:03.118Z,1.25
2024-05-09T03:08:03.140Z,1.24
2024-05-09T03:09:03.081Z,1.23
2024-05-09T03:10:03.451Z,1.25
2024-05-09T03:11:03.137Z,1.25
2024-05-09T03:12:03.402Z,1.24
2024-05-09T03:13:03.094Z,1.25
2024-05-09T03:14:03.139Z,1.25
2024-05-09T03:15:03.087Z,1.24
2024-05-09T03:16:03.126Z,1.24
2024-05-09T03:17:03.195Z,1.25
2024-05-09T03:18:03.476Z,1.24
2024-05-09T03:19:03.204Z,1.22
2024-05-09T03:20:05.028Z,1.23
2024-05-09T03:21:03.218Z,1.23
2024-05-09T03:22:03.130Z,1.23
2024-05-09T03:23:03.485Z,1.24
2024-05-09T03:24:03.135Z,1.24
2024-05-09T03:25:03.144Z,1.22
2024-05-09T03:26:03.215Z,1.24
2024-05-09T03:27:03.159Z,1.20
2024-05-09T03:28:03.101Z,1.21
2024-05-09T03:29:03.238Z,1.21
2024-05-09T03:30:05.469Z,1.21
2024-05-09T03:31:03.147Z,1.21
2024-05-09T03:32:03.187Z,1.22
2024-05-09T03:33:03.336Z,1.22
2024-05-09T03:34:03.234Z,1.23
2024-05-09T03:35:03.207Z,1.23
2024-05-09T03:36:03.112Z,1.23
2024-05-09T03:37:03.122Z,1.23
2024-05-09T03:38:03.225Z,1.21
2024-05-09T03:39:03.140Z,1.22
2024-05-09T03:40:03.148Z,1.23
2024-05-09T03:41:03.213Z,1.23
2024-05-09T03:42:03.163Z,1.24
2024-05-09T03:43:03.159Z,1.24
2024-05-09T03:44:03.222Z,1.23
2024-05-09T03:45:03.170Z,1.22
2024-05-09T03:46:03.184Z,1.23
2024-05-09T03:47:03.162Z,1.23
2024-05-09T03:48:03.250Z,1.23
2024-05-09T03:49:03.170Z,1.23
2024-05-09T03:50:04.506Z,1.22
2024-05-09T03:51:03.192Z,1.24
2024-05-09T03:52:03.173Z,1.25
2024-05-09T03:53:03.226Z,1.23
2024-05-09T03:54:03.184Z,1.22
2024-05-09T03:55:03.179Z,1.21
2024-05-09T03:56:03.210Z,1.22
2024-05-09T03:57:03.196Z,1.24
2024-05-09T03:58:03.200Z,1.23
2024-05-09T03:59:03.254Z,1.22
2024-05-09T04:00:05.566Z,1.22
2024-05-09T04:01:03.404Z,1.23
2024-05-09T04:02:03.382Z,1.22
2024-05-09T04:03:03.801Z,1.21
2024-05-09T04:04:03.368Z,1.20
2024-05-09T04:05:03.417Z,1.20
2024-05-09T04:06:03.352Z,1.20
2024-05-09T04:07:03.428Z,1.18
2024-05-09T04:08:03.487Z,1.17
2024-05-09T04:09:03.435Z,1.17
2024-05-09T04:10:05.260Z,1.14
2024-05-09T04:11:03.674Z,1.11
2024-05-09T04:12:03.664Z,1.11
2024-05-09T04:13:04.246Z,1.08
2024-05-09T04:14:03.673Z,1.08
2024-05-09T04:15:03.630Z,1.05
2024-05-09T04:16:03.687Z,1.03
2024-05-09T04:17:03.742Z,1.01
2024-05-09T04:18:04.081Z,1.00
2024-05-09T04:19:03.907Z,0.98
2024-05-09T04:20:05.116Z,0.95
2024-05-09T04:21:04.288Z,0.94
2024-05-09T04:22:04.083Z,0.91
2024-05-09T04:23:04.234Z,0.89
2024-05-09T04:24:04.208Z,0.87
2024-05-09T04:25:04.272Z,0.85
2024-05-09T04:26:04.413Z,0.83
2024-05-09T04:27:11.719Z,0.50
2024-05-09T04:28:11.701Z,0.50
2024-05-09T04:29:11.741Z,0.50
2024-05-09T04:30:18.955Z,0.50
2024-05-09T04:31:23.814Z,0.50
2024-05-09T04:32:23.992Z,0.50
2024-05-09T04:33:24.154Z,0.50
2024-05-09T04:34:23.926Z,0.50
2024-05-09T04:35:23.936Z,0.50
2024-05-09T04:36:23.844Z,0.50
2024-05-09T04:37:23.848Z,0.50
2024-05-09T04:38:23.907Z,0.50
2024-05-09T04:39:23.809Z,0.50
2024-05-09T04:40:31.226Z,0.51
2024-05-09T04:41:24.906Z,0.51
2024-05-09T04:42:23.838Z,0.50
2024-05-09T04:43:23.839Z,0.50
2024-05-09T04:44:23.950Z,0.49
2024-05-09T04:45:23.859Z,0.48
2024-05-09T04:46:23.889Z,0.51
2024-05-09T04:47:23.970Z,0.51
2024-05-09T04:48:23.990Z,0.51
2024-05-09T04:49:24.144Z,0.51
2024-05-09T04:50:33.205Z,0.51
2024-05-09T04:51:24.869Z,0.51
2024-05-09T04:52:23.869Z,0.51
2024-05-09T04:53:23.890Z,0.51
2024-05-09T04:54:33.664Z,0.50
2024-05-09T04:55:24.839Z,0.51
2024-05-09T04:56:23.969Z,0.51
2024-05-09T04:57:23.867Z,0.51
2024-05-09T04:58:23.868Z,0.51
2024-05-09T04:59:23.864Z,0.50
2024-05-09T05:00:31.999Z,0.51
2024-05-09T05:01:24.865Z,0.51
2024-05-09T05:02:23.951Z,0.51
2024-05-09T05:03:24.019Z,0.51
2024-05-09T05:04:23.968Z,0.51
2024-05-09T05:05:23.944Z,0.51
2024-05-09T05:06:23.894Z,0.51
2024-05-09T05:07:23.869Z,0.51
2024-05-09T05:08:23.877Z,0.52
2024-05-09T05:09:23.860Z,0.52
2024-05-09T05:10:32.988Z,0.52
2024-05-09T05:11:24.982Z,0.52
2024-05-09T05:12:23.965Z,0.52
2024-05-09T05:13:24.695Z,0.52
2024-05-09T05:14:24.059Z,0.51
2024-05-09T05:15:23.912Z,0.52
2024-05-09T05:16:23.913Z,0.52
2024-05-09T05:17:24.013Z,0.52
2024-05-09T05:18:23.956Z,0.52
2024-05-09T05:19:23.966Z,0.52
2024-05-09T05:20:31.024Z,0.53
2024-05-09T05:21:24.999Z,0.53
2024-05-09T05:22:23.857Z,0.53
2024-05-09T05:23:24.120Z,0.53
2024-05-09T05:24:23.914Z,0.53
2024-05-09T05:25:23.926Z,0.54
2024-05-09T05:26:23.927Z,0.53
2024-05-09T05:27:23.885Z,0.53
2024-05-09T05:28:23.999Z,0.52
2024-05-09T05:29:23.933Z,0.53
2024-05-09T05:30:29.079Z,0.52
2024-05-09T05:31:24.955Z,0.52
2024-05-09T05:32:24.080Z,0.52
2024-05-09T05:33:24.049Z,0.53
2024-05-09T05:34:23.933Z,0.53
2024-05-09T05:35:23.990Z,0.53
2024-05-09T05:36:23.893Z,0.53
2024-05-09T05:37:23.904Z,0.53
2024-05-09T05:38:27.335Z,0.53
2024-05-09T05:39:23.880Z,0.53
2024-05-09T05:40:32.731Z,0.53
2024-05-09T05:41:25.007Z,0.53
2024-05-09T05:42:23.888Z,0.53
2024-05-09T05:43:23.908Z,0.54
2024-05-09T05:44:24.097Z,0.54
2024-05-09T05:45:23.892Z,0.54
2024-05-09T05:46:23.916Z,0.55
2024-05-09T05:47:24.174Z,0.55
2024-05-09T05:48:24.079Z,0.54
2024-05-09T05:49:24.085Z,0.54
2024-05-09T05:50:31.877Z,0.54
2024-05-09T05:51:24.974Z,0.54
2024-05-09T05:52:23.893Z,0.54
2024-05-09T05:53:24.089Z,0.54
2024-05-09T05:54:23.905Z,0.55
2024-05-09T05:55:23.923Z,0.55
2024-05-09T05:56:23.903Z,0.54
2024-05-09T05:57:23.928Z,0.55
2024-05-09T05:58:23.911Z,0.54
2024-05-09T05:59:24.056Z,0.54
2024-05-09T06:01:23.974Z,0.54
2024-05-09T06:02:24.004Z,0.56
2024-05-09T06:03:24.015Z,0.55
2024-05-09T06:04:23.968Z,0.54
2024-05-09T06:05:25.978Z,0.54
2024-05-09T06:06:23.946Z,0.55
2024-05-09T06:07:23.989Z,0.55
2024-05-09T06:08:26.168Z,0.55
2024-05-09T06:09:23.912Z,0.55
2024-05-09T06:10:26.461Z,0.55
2024-05-09T06:11:25.069Z,0.55
2024-05-09T06:12:24.025Z,0.55
2024-05-09T06:13:23.914Z,0.55
2024-05-09T06:14:24.106Z,0.55
2024-05-09T06:15:23.962Z,0.55
2024-05-09T06:16:23.972Z,0.55
2024-05-09T06:17:24.158Z,0.55
2024-05-09T06:18:24.315Z,0.55
2024-05-09T06:19:24.249Z,0.54
2024-05-09T06:20:31.975Z,0.53
2024-05-09T06:21:25.050Z,0.53
2024-05-09T06:22:24.006Z,0.53
2024-05-09T06:23:24.026Z,0.53
2024-05-09T06:24:24.015Z,0.53
2024-05-09T06:25:24.129Z,0.52
2024-05-09T06:26:24.071Z,0.52
2024-05-09T06:27:24.041Z,0.52
2024-05-09T06:28:24.042Z,0.50
2024-05-09T06:29:24.174Z,0.51
2024-05-09T06:30:30.728Z,0.50
2024-05-09T06:31:25.074Z,0.50
2024-05-09T06:32:24.306Z,0.51
2024-05-09T06:33:24.339Z,0.51
2024-05-09T06:34:24.142Z,0.51
2024-05-09T06:35:24.055Z,0.51
2024-05-09T06:36:24.105Z,0.51
2024-05-09T06:37:24.069Z,0.51
2024-05-09T06:38:24.097Z,0.51
2024-05-09T06:39:24.068Z,0.51
2024-05-09T06:40:29.282Z,0.50
2024-05-09T06:41:25.126Z,0.51
2024-05-09T06:42:24.043Z,0.51
2024-05-09T06:43:24.047Z,0.50
2024-05-09T06:44:24.169Z,0.49
2024-05-09T06:45:24.080Z,0.49
2024-05-09T06:46:24.090Z,0.50
2024-05-09T06:47:24.307Z,0.51
2024-05-09T06:48:24.234Z,0.51
2024-05-09T06:49:24.426Z,0.51
2024-05-09T06:50:28.135Z,0.50
2024-05-09T06:51:25.279Z,0.50
2024-05-09T06:52:24.214Z,0.50
2024-05-09T06:53:24.391Z,0.50
2024-05-09T06:54:24.230Z,0.50
2024-05-09T06:55:24.228Z,0.50
2024-05-09T06:56:24.351Z,0.50
2024-05-09T06:57:24.249Z,0.51
2024-05-09T06:58:24.303Z,0.51
2024-05-09T06:59:24.303Z,0.51
2024-05-09T07:00:30.868Z,0.53
2024-05-09T07:01:25.374Z,0.53
2024-05-09T07:02:24.437Z,0.52
2024-05-09T07:03:24.486Z,0.53
2024-05-09T07:04:24.431Z,0.53
2024-05-09T07:05:24.567Z,0.51
2024-05-09T07:06:24.398Z,0.53
2024-05-09T07:07:24.355Z,0.53
2024-05-09T07:08:24.420Z,0.52
2024-05-09T07:09:24.377Z,0.53
2024-05-09T07:10:29.176Z,0.53
2024-05-09T07:11:25.489Z,0.53
2024-05-09T07:12:24.628Z,0.53
2024-05-09T07:13:24.365Z,0.53
2024-05-09T07:14:24.431Z,0.54
2024-05-09T07:15:24.366Z,0.54
2024-05-09T07:16:24.460Z,0.54
2024-05-09T07:17:24.546Z,0.54
2024-05-09T07:18:24.512Z,0.55
2024-05-09T07:19:24.569Z,0.54
2024-05-09T07:20:32.358Z,0.54
2024-05-09T07:21:25.462Z,0.54
2024-05-09T07:22:24.471Z,0.54
2024-05-09T07:23:24.507Z,0.54
2024-05-09T07:24:24.386Z,0.54
2024-05-09T07:25:24.397Z,0.54
2024-05-09T07:26:24.460Z,0.55
2024-05-09T07:27:24.381Z,0.54
2024-05-09T07:28:24.412Z,0.53
2024-05-09T07:29:24.458Z,0.55
2024-05-09T07:30:32.498Z,0.54
2024-05-09T07:31:25.366Z,0.54
2024-05-09T07:32:24.531Z,0.54
2024-05-09T07:33:24.880Z,0.54
2024-05-09T07:34:24.456Z,0.54
2024-05-09T07:35:24.460Z,0.54
2024-05-09T07:36:24.476Z,0.54
2024-05-09T07:37:24.422Z,0.53
2024-05-09T07:38:24.448Z,0.53
2024-05-09T07:39:24.400Z,0.54
2024-05-09T07:40:32.475Z,0.52
2024-05-09T07:41:25.475Z,0.52
2024-05-09T07:42:24.381Z,0.52
2024-05-09T07:43:24.422Z,0.53
2024-05-09T07:44:24.493Z,0.53
2024-05-09T07:45:43.001Z,0.54
2024-05-09T07:47:20.355Z,0.52
2024-05-09T07:48:56.917Z,0.52
2024-05-09T07:50:00.488Z,0.52
2024-05-09T07:54:24.690Z,0.52
2024-05-09T07:55:24.647Z,0.53
2024-05-09T07:56:25.662Z,0.55
2024-05-09T07:57:24.495Z,0.56
2024-05-09T07:58:24.461Z,0.57
2024-05-09T07:59:24.464Z,0.58
2024-05-09T08:00:30.995Z,0.56
2024-05-09T08:01:25.649Z,0.56
2024-05-09T08:02:24.604Z,0.57
2024-05-09T08:03:24.570Z,0.56
2024-05-09T08:04:26.555Z,0.56
2024-05-09T08:05:24.515Z,0.55
2024-05-09T08:06:24.501Z,0.55
2024-05-09T08:07:24.480Z,0.54
2024-05-09T08:08:24.564Z,0.54
2024-05-09T08:09:24.656Z,0.54
2024-05-09T08:10:28.428Z,0.55
2024-05-09T08:11:24.804Z,0.55
2024-05-09T08:12:24.669Z,0.55
2024-05-09T08:13:24.716Z,0.55
2024-05-09T08:14:24.726Z,0.54
2024-05-09T08:15:24.689Z,0.55
2024-05-09T08:16:24.768Z,0.54
2024-05-09T08:17:24.860Z,0.55
2024-05-09T08:18:24.838Z,0.54
2024-05-09T08:19:24.738Z,0.54
2024-05-09T08:20:31.026Z,0.55
2024-05-09T08:21:25.693Z,0.55
2024-05-09T08:22:24.684Z,0.55
2024-05-09T08:23:24.698Z,0.55
2024-05-09T08:24:24.676Z,0.55
2024-05-09T08:25:24.782Z,0.54
2024-05-09T08:26:24.677Z,0.55
2024-05-09T08:27:24.658Z,0.56
2024-05-09T08:28:24.711Z,0.54
2024-05-09T08:29:24.696Z,0.53
2024-05-09T08:30:32.546Z,0.54
2024-05-09T08:31:25.954Z,0.54
2024-05-09T08:32:24.818Z,0.54
2024-05-09T08:33:24.883Z,0.55
2024-05-09T08:34:24.862Z,0.54
2024-05-09T08:35:24.758Z,0.54
2024-05-09T08:36:24.771Z,0.54
2024-05-09T08:37:29.373Z,0.55
2024-05-09T08:38:25.763Z,0.55
2024-05-09T08:39:24.765Z,0.55
2024-05-09T08:40:31.080Z,0.55
2024-05-09T08:41:25.799Z,0.55
2024-05-09T08:42:24.825Z,0.55
2024-05-09T08:43:24.800Z,0.56
2024-05-09T08:44:24.859Z,0.56
2024-05-09T08:45:24.809Z,0.56
2024-05-09T08:46:24.841Z,0.55
2024-05-09T08:47:24.936Z,0.56
2024-05-09T08:48:24.925Z,0.55
2024-05-09T08:49:24.861Z,0.56
2024-05-09T08:50:32.293Z,0.55
2024-05-09T08:51:25.795Z,0.55
2024-05-09T08:52:24.783Z,0.55
2024-05-09T08:53:24.834Z,0.55
2024-05-09T08:54:24.798Z,0.56
2024-05-09T08:55:24.830Z,0.56
2024-05-09T08:56:24.814Z,0.57
2024-05-09T08:57:24.946Z,0.57
2024-05-09T08:58:24.847Z,0.56
2024-05-09T08:59:24.825Z,0.56
2024-05-09T09:00:33.828Z,0.57
2024-05-09T09:01:25.918Z,0.57
2024-05-09T09:02:24.981Z,0.57
2024-05-09T09:03:24.974Z,0.57
2024-05-09T09:04:24.964Z,0.57
2024-05-09T09:05:24.943Z,0.57
2024-05-09T09:06:24.822Z,0.57
2024-05-09T09:07:24.858Z,0.56
2024-05-09T09:08:24.850Z,0.58
2024-05-09T09:09:24.791Z,0.57
2024-05-09T09:10:31.059Z,0.56
2024-05-09T09:11:25.864Z,0.57
2024-05-09T09:12:24.881Z,0.57
2024-05-09T09:13:24.843Z,0.57
2024-05-09T09:14:24.818Z,0.57
2024-05-09T09:15:24.836Z,0.57
2024-05-09T09:16:24.898Z,0.58
2024-05-09T09:17:24.913Z,0.58
2024-05-09T09:18:24.942Z,0.58
2024-05-09T09:19:25.038Z,0.58
2024-05-09T09:20:29.554Z,0.58
2024-05-09T09:21:25.843Z,0.58
2024-05-09T09:22:24.809Z,0.58
2024-05-09T09:23:24.825Z,0.58
2024-05-09T09:24:24.834Z,0.59
2024-05-09T09:25:24.851Z,0.59
2024-05-09T09:26:24.854Z,0.59
2024-05-09T09:27:24.872Z,0.59
2024-05-09T09:28:24.826Z,0.59
2024-05-09T09:29:24.853Z,0.58
2024-05-09T09:30:34.645Z,0.59
2024-05-09T09:31:26.006Z,0.59
2024-05-09T09:32:24.949Z,0.59
2024-05-09T09:33:24.969Z,0.59
2024-05-09T09:34:24.977Z,0.59
2024-05-09T09:35:24.883Z,0.60
2024-05-09T09:36:24.860Z,0.60
2024-05-09T09:37:24.857Z,0.59
2024-05-09T09:38:24.877Z,0.59
2024-05-09T09:39:24.845Z,0.59
2024-05-09T09:40:31.330Z,0.59
2024-05-09T09:41:25.885Z,0.59
2024-05-09T09:42:24.878Z,0.59
2024-05-09T09:43:24.992Z,0.59
2024-05-09T09:44:24.889Z,0.60
2024-05-09T09:45:24.907Z,0.61
2024-05-09T09:46:25.017Z,0.61
2024-05-09T09:47:24.939Z,0.60
2024-05-09T09:48:24.960Z,0.61
2024-05-09T09:49:24.951Z,0.60
2024-05-09T09:50:31.848Z,0.62
2024-05-09T09:51:25.897Z,0.62
2024-05-09T09:52:24.910Z,0.62
2024-05-09T09:53:24.887Z,0.62
2024-05-09T09:54:24.909Z,0.62
2024-05-09T09:55:24.995Z,0.61
2024-05-09T09:56:24.908Z,0.62
2024-05-09T09:57:24.900Z,0.63
2024-05-09T09:58:25.097Z,0.62
2024-05-09T09:59:24.899Z,0.62
2024-05-09T10:00:30.570Z,0.63
2024-05-09T10:01:25.978Z,0.63
2024-05-09T10:02:25.028Z,0.64
2024-05-09T10:03:25.004Z,0.64
2024-05-09T10:04:24.976Z,0.64
2024-05-09T10:05:25.095Z,0.66
2024-05-09T10:06:24.932Z,0.64
2024-05-09T10:07:24.940Z,0.65
2024-05-09T10:08:24.951Z,0.65
2024-05-09T10:09:24.930Z,0.66
2024-05-09T10:11:24.960Z,0.67
2024-05-09T10:12:24.956Z,0.67
2024-05-09T10:13:25.054Z,0.66
2024-05-09T10:14:24.910Z,0.66
2024-05-09T10:15:24.919Z,0.66
2024-05-09T10:16:24.990Z,0.68
2024-05-09T10:17:25.039Z,0.67
2024-05-09T10:18:28.452Z,0.68
2024-05-09T10:19:26.025Z,0.68
2024-05-09T10:20:28.294Z,0.68
2024-05-09T10:21:25.976Z,0.68
2024-05-09T10:22:24.973Z,0.69
2024-05-09T10:23:24.945Z,0.69
2024-05-09T10:24:24.974Z,0.71
2024-05-09T10:25:25.041Z,0.72
2024-05-09T10:26:24.906Z,0.73
2024-05-09T10:27:24.915Z,0.71
2024-05-09T10:28:24.990Z,0.72
2024-05-09T10:29:24.933Z,0.74
2024-05-09T10:30:33.370Z,0.73
2024-05-09T10:31:25.966Z,0.73
2024-05-09T10:32:25.065Z,0.73
2024-05-09T10:33:25.002Z,0.74
2024-05-09T10:34:25.253Z,0.73
2024-05-09T10:35:24.977Z,0.75
2024-05-09T10:36:24.966Z,0.73
2024-05-09T10:37:24.976Z,0.74
2024-05-09T10:38:24.963Z,0.74
2024-05-09T10:39:24.989Z,0.73
2024-05-09T10:40:30.989Z,0.73
2024-05-09T10:41:25.960Z,0.73
2024-05-09T10:42:24.947Z,0.73
2024-05-09T10:43:25.039Z,0.74
2024-05-09T10:44:24.960Z,0.74
2024-05-09T10:45:24.970Z,0.75
2024-05-09T10:46:25.013Z,0.74
2024-05-09T10:47:25.104Z,0.73
2024-05-09T10:48:25.080Z,0.75
2024-05-09T10:49:25.037Z,0.74
2024-05-09T10:50:28.751Z,0.74
2024-05-09T10:51:25.951Z,0.74
2024-05-09T10:52:25.033Z,0.74
2024-05-09T10:53:24.963Z,0.74
2024-05-09T10:54:24.951Z,0.74
2024-05-09T10:55:25.031Z,0.75
2024-05-09T10:56:24.976Z,0.74
2024-05-09T10:57:25.000Z,0.74
2024-05-09T10:58:24.996Z,0.73
2024-05-09T10:59:25.015Z,0.73
2024-05-09T11:00:33.062Z,0.75
2024-05-09T11:01:26.134Z,0.75
2024-05-09T11:02:25.108Z,0.75
2024-05-09T11:03:25.067Z,0.73
2024-05-09T11:04:25.098Z,0.75
2024-05-09T11:05:25.102Z,0.74
2024-05-09T11:06:25.005Z,0.74
2024-05-09T11:07:25.153Z,0.72
2024-05-09T11:08:25.031Z,0.74
2024-05-09T11:09:25.017Z,0.74
2024-05-09T11:10:31.751Z,0.73
2024-05-09T11:11:26.032Z,0.73
2024-05-09T11:12:25.109Z,0.73
2024-05-09T11:13:25.007Z,0.74
2024-05-09T11:14:25.009Z,0.73
2024-05-09T11:15:25.002Z,0.74
2024-05-09T11:16:25.061Z,0.74
2024-05-09T11:17:25.125Z,0.73
2024-05-09T11:18:26.183Z,0.73
2024-05-09T11:19:25.141Z,0.74
2024-05-09T11:20:29.681Z,0.71
2024-05-09T11:21:26.025Z,0.71
2024-05-09T11:22:25.121Z,0.72
2024-05-09T11:23:25.022Z,0.72
2024-05-09T11:24:25.053Z,0.73
2024-05-09T11:25:25.118Z,0.74
2024-05-09T11:26:25.084Z,0.74
2024-05-09T11:27:25.025Z,0.73
2024-05-09T11:28:25.104Z,0.72
2024-05-09T11:29:25.038Z,0.73
2024-05-09T11:30:30.105Z,0.73
2024-05-09T11:31:26.151Z,0.73
2024-05-09T11:32:25.279Z,0.73
2024-05-09T11:33:25.097Z,0.74
2024-05-09T11:34:25.068Z,0.74
2024-05-09T11:35:25.030Z,0.75
2024-05-09T11:36:25.047Z,0.73
2024-05-09T11:37:25.148Z,0.74
2024-05-09T11:38:25.011Z,0.75
2024-05-09T11:39:25.119Z,0.73
2024-05-09T11:40:28.449Z,0.73
2024-05-09T11:41:26.042Z,0.73
2024-05-09T11:42:25.069Z,0.73
2024-05-09T11:43:25.112Z,0.74
2024-05-09T11:44:25.107Z,0.73
2024-05-09T11:45:25.051Z,0.74
2024-05-09T11:46:25.179Z,0.73
2024-05-09T11:47:25.200Z,0.73
2024-05-09T11:48:25.393Z,0.71
2024-05-09T11:49:26.845Z,0.72
2024-05-09T11:50:29.972Z,0.72
2024-05-09T11:51:26.062Z,0.72
2024-05-09T11:52:25.115Z,0.72
2024-05-09T11:53:25.059Z,0.72
2024-05-09T11:54:25.062Z,0.73
2024-05-09T11:55:28.003Z,0.73
2024-05-09T11:56:25.082Z,0.74
2024-05-09T11:57:25.046Z,0.73
2024-05-09T11:58:25.098Z,0.72
2024-05-09T11:59:25.118Z,0.73
2024-05-09T12:00:33.539Z,0.73
2024-05-09T12:01:27.933Z,0.73
2024-05-09T12:02:25.267Z,0.73
2024-05-09T12:03:25.170Z,0.73
2024-05-09T12:04:25.219Z,0.73
2024-05-09T12:05:25.159Z,0.72
2024-05-09T12:06:25.088Z,0.73
2024-05-09T12:07:25.168Z,0.72
2024-05-09T12:08:25.103Z,0.70
2024-05-09T12:09:25.090Z,0.71
2024-05-09T12:10:32.133Z,0.71
2024-05-09T12:11:26.163Z,0.71
2024-05-09T12:12:25.098Z,0.71
2024-05-09T12:13:25.119Z,0.72
2024-05-09T12:14:25.094Z,0.72
2024-05-09T12:15:25.072Z,0.73
2024-05-09T12:16:25.193Z,0.71
2024-05-09T12:17:25.283Z,0.72
2024-05-09T12:18:25.162Z,0.72
2024-05-09T12:19:25.138Z,0.69
2024-05-09T12:20:32.435Z,0.70
2024-05-09T12:21:26.128Z,0.70
2024-05-09T12:22:25.156Z,0.70
2024-05-09T12:23:25.145Z,0.71
2024-05-09T12:24:25.159Z,0.71
2024-05-09T12:25:25.197Z,0.73
2024-05-09T12:26:25.077Z,0.71
2024-05-09T12:27:25.082Z,0.71
2024-05-09T12:28:25.331Z,0.70
2024-05-09T12:29:25.107Z,0.71
2024-05-09T12:30:33.288Z,0.71
2024-05-09T12:31:26.286Z,0.71
2024-05-09T12:32:25.204Z,0.71
2024-05-09T12:33:25.236Z,0.72
2024-05-09T12:34:25.315Z,0.73
2024-05-09T12:35:25.148Z,0.73
2024-05-09T12:36:25.104Z,0.72
2024-05-09T12:37:25.146Z,0.74
2024-05-09T12:38:25.114Z,0.73
2024-05-09T12:39:25.130Z,0.73
2024-05-09T12:40:34.290Z,0.72
2024-05-09T12:41:26.163Z,0.72
2024-05-09T12:42:27.509Z,0.73
2024-05-09T12:43:25.224Z,0.72
2024-05-09T12:44:25.110Z,0.73
2024-05-09T12:45:25.103Z,0.73
2024-05-09T12:46:25.328Z,0.74
2024-05-09T12:47:25.237Z,0.74
2024-05-09T12:48:25.205Z,0.77
2024-05-09T12:49:25.399Z,0.76
2024-05-09T12:50:31.658Z,0.73
2024-05-09T12:51:26.177Z,0.73
2024-05-09T12:52:25.164Z,0.74
2024-05-09T12:53:25.166Z,0.74
2024-05-09T12:54:25.190Z,0.74
2024-05-09T12:55:25.236Z,0.77
2024-05-09T12:56:25.195Z,0.76
2024-05-09T12:57:25.149Z,0.76
2024-05-09T12:58:25.209Z,0.75
2024-05-09T12:59:25.171Z,0.74
2024-05-09T13:00:31.464Z,0.74
2024-05-09T13:01:26.244Z,0.74
2024-05-09T13:02:25.401Z,0.74
2024-05-09T13:03:25.309Z,0.75
2024-05-09T13:04:25.399Z,0.75
2024-05-09T13:05:25.375Z,0.75
2024-05-09T13:06:25.216Z,0.74
2024-05-09T13:07:25.215Z,0.74
2024-05-09T13:08:25.182Z,0.73
2024-05-09T13:09:25.168Z,0.73
2024-05-09T13:10:31.328Z,0.72
2024-05-09T13:11:26.255Z,0.72
2024-05-09T13:12:25.170Z,0.73
2024-05-09T13:13:25.235Z,0.73
2024-05-09T13:14:25.200Z,0.73
2024-05-09T13:15:25.165Z,0.75
2024-05-09T13:16:25.335Z,0.72
2024-05-09T13:17:25.347Z,0.73
2024-05-09T13:18:25.201Z,0.72
2024-05-09T13:19:25.274Z,0.73
2024-05-09T13:20:31.639Z,0.73
2024-05-09T13:21:26.179Z,0.73
2024-05-09T13:22:25.214Z,0.73
2024-05-09T13:23:25.240Z,0.73
2024-05-09T13:24:25.229Z,0.71
2024-05-09T13:25:25.176Z,0.72
2024-05-09T13:26:25.192Z,0.72